createdAt,value
2022-09-25T00:00:31.167Z,75.12
2022-09-25T00:03:04.049Z,75.11
2022-09-25T00:05:37.439Z,74.97
2022-09-25T00:08:10.338Z,74.81
2022-09-25T00:10:44.337Z,75.19
2022-09-25T00:13:18.303Z,75.61
2022-09-25T00:15:52.393Z,75.80
2022-09-25T00:18:39.823Z,76.05
2022-09-25T00:21:15.128Z,75.84
2022-09-25T00:23:48.156Z,76.00
2022-09-25T00:26:20.499Z,76.34
2022-09-25T00:28:52.842Z,76.26
2022-09-25T00:31:25.481Z,76.41
2022-09-25T00:34:00.603Z,76.50
2022-09-25T00:36:34.080Z,76.90
2022-09-25T00:39:06.337Z,77.20
2022-09-25T00:41:38.837Z,77.44
2022-09-25T00:44:51.629Z,77.48
2022-09-25T00:47:30.532Z,77.25
2022-09-25T00:50:12.179Z,77.70
2022-09-25T00:52:46.817Z,77.94
2022-09-25T00:55:19.698Z,77.52
2022-09-25T00:57:56.276Z,77.82
2022-09-25T01:00:28.900Z,78.19
2022-09-25T01:03:03.189Z,78.26
2022-09-25T01:05:38.221Z,78.65
2022-09-25T01:08:13.880Z,78.76
2022-09-25T01:10:46.347Z,78.61
2022-09-25T01:13:20.030Z,78.97
2022-09-25T01:15:59.119Z,78.67
2022-09-25T01:18:46.086Z,78.72
2022-09-25T01:21:30.039Z,79.04
2022-09-25T01:24:34.177Z,78.98
2022-09-25T01:27:33.138Z,79.00
2022-09-25T01:30:12.154Z,79.34
2022-09-25T01:33:03.403Z,79.54
2022-09-25T01:35:45.696Z,79.42
2022-09-25T01:38:26.087Z,80.21
2022-09-25T01:41:04.735Z,79.89
2022-09-25T01:43:41.091Z,79.16
2022-09-25T01:46:17.143Z,80.07
2022-09-25T01:48:55.167Z,80.12
2022-09-25T01:51:32.257Z,80.40
2022-09-25T01:54:10.565Z,79.88
2022-09-25T01:56:49.954Z,79.90
2022-09-25T01:59:29.810Z,80.53
2022-09-25T02:02:05.918Z,80.03
2022-09-25T02:04:42.599Z,80.46
2022-09-25T02:07:21.564Z,80.51
2022-09-25T02:09:58.072Z,80.79
2022-09-25T02:12:34.622Z,80.92
2022-09-25T02:15:13.090Z,80.90
2022-09-25T02:18:11.108Z,80.28
2022-09-25T02:20:47.592Z,81.18
2022-09-25T02:23:24.788Z,81.05
2022-09-25T02:26:04.162Z,80.82
2022-09-25T02:28:36.633Z,81.02
2022-09-25T02:31:12.410Z,81.24
2022-09-25T02:33:45.469Z,81.08
2022-09-25T02:36:19.530Z,81.03
2022-09-25T02:38:55.304Z,81.51
2022-09-25T02:41:43.644Z,81.42
2022-09-25T02:44:27.236Z,81.90
2022-09-25T02:47:12.660Z,81.86
2022-09-25T02:49:51.467Z,81.63
2022-09-25T02:52:33.054Z,81.70
2022-09-25T02:55:11.699Z,82.07
2022-09-25T02:57:51.214Z,81.98
2022-09-25T03:00:23.579Z,82.80
2022-09-25T03:02:59.219Z,82.19
2022-09-25T03:05:32.280Z,82.44
2022-09-25T03:08:23.304Z,83.68
2022-09-25T03:10:57.023Z,83.67
2022-09-25T03:13:31.283Z,83.85
2022-09-25T03:16:08.154Z,83.82
2022-09-25T03:18:40.757Z,84.04
2022-09-25T03:21:13.831Z,84.22
2022-09-25T03:23:46.180Z,84.08
2022-09-25T03:26:18.508Z,85.04
2022-09-25T03:28:51.330Z,84.73
2022-09-25T03:31:23.868Z,85.19
2022-09-25T03:33:56.461Z,85.10
2022-09-25T03:36:30.970Z,84.72
2022-09-25T03:39:05.329Z,84.37
2022-09-25T03:41:37.600Z,84.38
2022-09-25T03:44:10.155Z,83.35
2022-09-25T03:46:42.427Z,83.78
2022-09-25T03:49:14.734Z,83.95
2022-09-25T03:51:47.756Z,83.53
2022-09-25T03:54:20.119Z,83.45
2022-09-25T03:56:52.382Z,83.24
2022-09-25T03:59:24.817Z,83.46
2022-09-25T04:01:57.515Z,83.74
2022-09-25T04:04:29.787Z,83.04
2022-09-25T04:07:02.889Z,83.09
2022-09-25T04:09:35.154Z,83.33
2022-09-25T04:12:08.244Z,83.47
2022-09-25T04:14:45.138Z,83.50
2022-09-25T04:17:17.716Z,83.77
2022-09-25T04:19:50.272Z,83.46
2022-09-25T04:22:23.432Z,83.34
2022-09-25T04:24:56.478Z,83.48
2022-09-25T04:27:28.742Z,83.48
2022-09-25T04:30:01.466Z,83.32
2022-09-25T04:32:51.674Z,83.53
2022-09-25T04:35:24.055Z,83.77
2022-09-25T04:37:57.074Z,83.35
2022-09-25T04:40:30.227Z,83.67
2022-09-25T04:43:04.673Z,83.97
2022-09-25T04:45:37.386Z,84.16
2022-09-25T04:48:09.808Z,84.20
2022-09-25T04:50:47.894Z,84.70
2022-09-25T04:53:22.242Z,84.23
2022-09-25T04:55:55.178Z,84.41
2022-09-25T04:58:27.663Z,84.36
2022-09-25T05:01:02.436Z,84.32
2022-09-25T05:03:35.094Z,84.59
2022-09-25T05:06:07.763Z,85.16
2022-09-25T05:08:40.803Z,85.30
2022-09-25T05:11:13.101Z,85.25
2022-09-25T05:13:50.535Z,85.35
2022-09-25T05:16:22.925Z,85.34
2022-09-25T05:18:55.815Z,85.64
2022-09-25T05:21:28.063Z,86.51
2022-09-25T05:24:02.056Z,87.17
2022-09-25T05:26:34.605Z,87.11
2022-09-25T05:29:07.132Z,86.36
2022-09-25T05:31:41.899Z,86.02
2022-09-25T05:34:14.403Z,85.42
2022-09-25T05:36:46.739Z,84.74
2022-09-25T05:39:19.779Z,83.90
2022-09-25T05:41:52.136Z,82.66
2022-09-25T05:44:27.673Z,81.71
2022-09-25T05:46:59.998Z,81.53
2022-09-25T05:49:32.306Z,80.01
2022-09-25T05:52:04.603Z,79.68
2022-09-25T05:54:37.559Z,78.16
2022-09-25T05:57:09.953Z,76.97
2022-09-25T05:59:42.304Z,75.42
2022-09-25T06:02:14.943Z,76.04
2022-09-25T06:04:47.303Z,73.87
2022-09-25T06:07:19.643Z,72.37
2022-09-25T06:09:52.634Z,70.35
2022-09-25T06:12:25.001Z,70.18
2022-09-25T06:14:57.536Z,68.33
2022-09-25T06:17:30.303Z,68.42
2022-09-25T06:20:02.838Z,68.11
2022-09-25T06:22:35.145Z,67.62
2022-09-25T06:25:10.212Z,65.95
2022-09-25T06:27:42.544Z,65.17
2022-09-25T06:30:14.886Z,61.81
2022-09-25T06:32:47.350Z,60.49
2022-09-25T06:35:20.051Z,59.81
2022-09-25T06:37:52.332Z,58.82
2022-09-25T06:40:27.335Z,57.30
2022-09-25T06:43:00.943Z,55.11
2022-09-25T06:45:34.891Z,53.23
2022-09-25T06:48:09.774Z,52.73
2022-09-25T06:50:45.754Z,51.29
2022-09-25T06:53:20.179Z,51.44
2022-09-25T06:55:56.631Z,51.62
2022-09-25T06:58:30.062Z,51.61
2022-09-25T07:01:06.307Z,50.90
2022-09-25T07:03:44.016Z,50.62
2022-09-25T07:06:18.183Z,50.86
2022-09-25T07:08:51.362Z,49.59
2022-09-25T07:11:26.112Z,52.62
2022-09-25T07:13:58.675Z,53.08
2022-09-25T07:16:31.863Z,56.56
2022-09-25T07:19:04.303Z,55.95
2022-09-25T07:21:37.031Z,57.40
2022-09-25T07:24:10.813Z,57.51
2022-09-25T07:26:43.825Z,56.33
2022-09-25T07:29:16.220Z,55.67
2022-09-25T07:31:48.543Z,55.24
2022-09-25T07:34:20.874Z,54.72
2022-09-25T07:36:54.574Z,54.95
2022-09-25T07:39:26.886Z,47.98
2022-09-25T07:41:59.977Z,49.33
2022-09-25T07:44:37.890Z,46.26
2022-09-25T07:47:14.463Z,46.25
2022-09-25T07:49:46.878Z,46.42
2022-09-25T07:52:19.175Z,45.54
2022-09-25T07:54:51.521Z,44.21
2022-09-25T07:57:24.619Z,43.95
2022-09-25T07:59:56.852Z,43.82
2022-09-25T08:02:29.268Z,43.33
2022-09-25T08:05:01.615Z,43.12
2022-09-25T08:07:33.956Z,41.62
2022-09-25T08:10:07.363Z,42.48
2022-09-25T08:12:40.339Z,40.84
2022-09-25T08:15:13.934Z,39.77
2022-09-25T08:17:46.248Z,40.26
2022-09-25T08:20:18.853Z,39.95
2022-09-25T08:22:53.329Z,39.65
2022-09-25T08:25:25.673Z,39.87
2022-09-25T08:27:58.611Z,40.17
2022-09-25T08:30:31.237Z,40.20
2022-09-25T08:33:03.667Z,40.06
2022-09-25T08:35:36.380Z,38.76
2022-09-25T08:38:10.486Z,38.46
2022-09-25T08:40:49.608Z,39.53
2022-09-25T08:43:25.353Z,38.34
2022-09-25T08:46:21.015Z,38.23
2022-09-25T08:49:05.547Z,37.09
2022-09-25T08:51:40.991Z,37.53
2022-09-25T08:54:22.187Z,37.75
2022-09-25T08:56:58.049Z,37.49
2022-09-25T08:59:37.919Z,37.08
2022-09-25T09:02:14.108Z,36.24
2022-09-25T09:04:50.888Z,35.65
2022-09-25T09:07:27.868Z,35.32
2022-09-25T09:10:06.142Z,35.58
2022-09-25T09:12:42.742Z,35.87
2022-09-25T09:15:26.782Z,35.23
2022-09-25T09:18:01.011Z,34.73
2022-09-25T09:20:41.331Z,35.42
2022-09-25T09:23:19.574Z,35.28
2022-09-25T09:26:00.967Z,35.30
2022-09-25T09:29:04.725Z,35.13
2022-09-25T09:31:51.507Z,36.77
2022-09-25T09:37:51.495Z,36.45
2022-09-25T09:40:38.924Z,36.04
2022-09-25T09:43:19.573Z,36.83
2022-09-25T09:45:58.315Z,36.43
2022-09-25T09:48:39.343Z,36.12
2022-09-25T09:51:16.072Z,35.76
2022-09-25T09:53:51.839Z,35.45
2022-09-25T09:56:26.800Z,36.70
2022-09-25T09:59:02.858Z,35.77
2022-09-25T10:01:42.358Z,34.34
2022-09-25T10:04:19.151Z,35.10
2022-09-25T10:07:00.914Z,35.06
2022-09-25T10:09:33.223Z,36.24
2022-09-25T10:12:11.903Z,36.09
2022-09-25T10:14:46.970Z,35.87
2022-09-25T10:17:23.426Z,35.86
2022-09-25T10:20:00.227Z,34.78
2022-09-25T10:22:38.183Z,35.16
2022-09-25T10:25:10.561Z,33.55
2022-09-25T10:27:45.427Z,33.80
2022-09-25T10:30:20.043Z,33.02
2022-09-25T10:32:57.926Z,33.02
2022-09-25T10:35:43.085Z,32.23
2022-09-25T10:38:30.503Z,31.86
2022-09-25T10:41:06.311Z,32.19
2022-09-25T10:43:51.377Z,31.94
2022-09-25T10:46:47.323Z,31.33
2022-09-25T10:49:39.767Z,31.63
2022-09-25T10:52:14.486Z,30.75
2022-09-25T10:54:47.431Z,30.60
2022-09-25T10:57:33.419Z,29.62
2022-09-25T11:00:22.886Z,30.33
2022-09-25T11:02:59.088Z,29.83
2022-09-25T11:05:34.527Z,30.81
2022-09-25T11:08:08.560Z,30.99
2022-09-25T11:10:50.561Z,30.96
2022-09-25T11:13:25.402Z,31.23
2022-09-25T11:16:00.502Z,30.32
2022-09-25T11:18:40.041Z,29.89
2022-09-25T11:21:23.424Z,30.71
2022-09-25T11:24:03.983Z,29.39
2022-09-25T11:26:40.630Z,28.75
2022-09-25T11:29:20.771Z,28.47
2022-09-25T11:32:02.207Z,28.99
2022-09-25T11:34:48.755Z,29.63
2022-09-25T11:37:26.943Z,29.64
2022-09-25T11:40:28.983Z,28.40
2022-09-25T11:43:05.888Z,28.73
2022-09-25T11:45:47.306Z,29.68
2022-09-25T11:48:32.179Z,30.92
2022-09-25T11:51:16.296Z,30.54
2022-09-25T11:54:17.955Z,30.95
2022-09-25T11:56:59.755Z,31.87
2022-09-25T11:59:44.998Z,32.19
2022-09-25T12:02:40.136Z,31.89
2022-09-25T12:05:30.335Z,32.08
2022-09-25T12:08:17.222Z,31.60
2022-09-25T12:10:56.115Z,31.17
2022-09-25T12:13:40.456Z,30.72
2022-09-25T12:16:23.161Z,30.77
2022-09-25T12:19:10.086Z,30.89
2022-09-25T12:21:50.194Z,31.38
2022-09-25T12:24:33.423Z,30.58
2022-09-25T12:27:14.475Z,30.91
2022-09-25T12:30:06.039Z,31.37
2022-09-25T12:32:54.451Z,30.86
2022-09-25T12:35:37.696Z,31.92
2022-09-25T12:38:18.648Z,32.35
2022-09-25T12:40:54.746Z,32.73
2022-09-25T12:43:32.818Z,32.75
2022-09-25T12:46:12.021Z,33.08
2022-09-25T12:48:49.799Z,33.33
2022-09-25T12:51:39.744Z,33.12
2022-09-25T12:54:22.508Z,32.56
2022-09-25T12:56:58.446Z,32.89
2022-09-25T12:59:39.445Z,32.88
2022-09-25T13:02:24.743Z,33.82
2022-09-25T13:05:06.108Z,33.55
2022-09-25T13:07:45.105Z,33.49
2022-09-25T13:10:26.716Z,33.27
2022-09-25T13:13:02.217Z,33.83
2022-09-25T13:15:38.090Z,33.85
2022-09-25T13:18:17.096Z,32.90
2022-09-25T13:20:51.826Z,33.43
2022-09-25T13:23:29.088Z,34.05
2022-09-25T13:26:10.370Z,33.65
2022-09-25T13:28:51.078Z,34.33
2022-09-25T13:31:26.535Z,33.04
2022-09-25T13:34:04.839Z,33.60
2022-09-25T13:36:40.046Z,34.01
2022-09-25T13:39:40.714Z,34.15
2022-09-25T13:42:21.404Z,34.30
2022-09-25T13:45:05.500Z,33.45
2022-09-25T13:47:56.889Z,32.23
2022-09-25T13:50:35.993Z,33.60
2022-09-25T13:53:48.675Z,33.70
2022-09-25T13:56:29.282Z,34.97
2022-09-25T13:59:20.527Z,34.72
2022-09-25T14:01:59.117Z,35.25
2022-09-25T14:04:36.847Z,35.03
2022-09-25T14:07:20.927Z,34.29
2022-09-25T14:09:56.268Z,34.52
2022-09-25T14:12:41.800Z,34.45
2022-09-25T14:15:34.798Z,34.26
2022-09-25T14:18:15.586Z,34.86
2022-09-25T14:20:50.385Z,34.89
2022-09-25T14:23:26.537Z,34.83
2022-09-25T14:25:59.946Z,35.16
2022-09-25T14:28:34.205Z,34.74
2022-09-25T14:31:23.889Z,34.94
2022-09-25T14:34:25.186Z,34.40
2022-09-25T14:37:13.516Z,35.26
2022-09-25T14:39:57.109Z,35.26
2022-09-25T14:42:47.558Z,34.89
2022-09-25T14:45:50.186Z,34.57
2022-09-25T14:48:26.912Z,34.80
2022-09-25T14:51:02.168Z,35.11
2022-09-25T14:53:37.431Z,34.22
2022-09-25T14:56:14.528Z,34.31
2022-09-25T14:58:49.601Z,33.20
2022-09-25T15:01:26.802Z,33.28
2022-09-25T15:04:01.786Z,34.08
2022-09-25T15:06:35.744Z,34.59
2022-09-25T15:09:28.219Z,35.04
2022-09-25T15:12:15.562Z,34.17
2022-09-25T15:14:58.871Z,32.07
2022-09-25T15:17:32.995Z,31.82
2022-09-25T15:20:11.277Z,31.73
2022-09-25T15:22:47.967Z,31.29
2022-09-25T15:25:23.537Z,31.44
2022-09-25T15:27:58.040Z,31.71
2022-09-25T15:30:31.529Z,31.82
2022-09-25T15:33:04.090Z,31.91
2022-09-25T15:35:36.417Z,32.09
2022-09-25T15:38:12.925Z,32.13
2022-09-25T15:40:54.285Z,31.96
2022-09-25T15:43:29.267Z,32.20
2022-09-25T15:46:31.337Z,31.74
2022-09-25T15:49:05.508Z,31.66
2022-09-25T15:51:37.884Z,32.01
2022-09-25T15:54:29.838Z,32.01
2022-09-25T15:57:05.937Z,32.09
2022-09-25T16:00:02.841Z,31.89
2022-09-25T16:03:01.005Z,32.51
2022-09-25T16:05:35.697Z,32.76
2022-09-25T16:08:28.604Z,32.92
2022-09-25T16:11:12.479Z,33.50
2022-09-25T16:13:47.878Z,33.55
2022-09-25T16:16:28.779Z,34.20
2022-09-25T16:19:26.630Z,34.18
2022-09-25T16:22:03.131Z,34.70
2022-09-25T16:24:35.570Z,35.50
2022-09-25T16:27:20.564Z,35.74
2022-09-25T16:29:54.375Z,35.62
2022-09-25T16:32:28.414Z,35.98
2022-09-25T16:35:03.017Z,36.07
2022-09-25T16:37:35.930Z,36.89
2022-09-25T16:40:24.354Z,37.00
2022-09-25T16:42:57.748Z,38.30
2022-09-25T16:45:33.426Z,39.37
2022-09-25T16:48:28.187Z,40.19
2022-09-25T16:51:00.814Z,41.39
2022-09-25T16:53:33.623Z,42.00
2022-09-25T16:56:06.218Z,43.56
2022-09-25T16:58:38.507Z,44.12
2022-09-25T17:01:11.247Z,44.36
2022-09-25T17:03:50.669Z,44.43
2022-09-25T17:06:25.658Z,45.07
2022-09-25T17:08:59.214Z,45.21
2022-09-25T17:11:31.583Z,45.97
2022-09-25T17:14:03.944Z,46.75
2022-09-25T17:16:36.347Z,46.44
2022-09-25T17:19:15.770Z,46.74
2022-09-25T17:21:50.551Z,47.23
2022-09-25T17:24:26.214Z,47.83
2022-09-25T17:26:58.609Z,48.65
2022-09-25T17:29:30.867Z,48.80
2022-09-25T17:32:03.223Z,48.94
2022-09-25T17:34:46.023Z,49.60
2022-09-25T17:37:18.330Z,50.48
2022-09-25T17:39:50.630Z,50.69
2022-09-25T17:42:23.651Z,50.64
2022-09-25T17:44:56.791Z,51.01
2022-09-25T17:47:31.011Z,51.25
2022-09-25T17:50:04.459Z,51.42
2022-09-25T17:52:36.936Z,51.32
2022-09-25T17:55:15.687Z,52.06
2022-09-25T17:57:48.355Z,51.99
2022-09-25T18:00:20.715Z,52.60
2022-09-25T18:02:53.059Z,52.70
2022-09-25T18:05:28.832Z,52.84
2022-09-25T18:08:01.397Z,52.87
2022-09-25T18:10:35.875Z,52.74
2022-09-25T18:13:14.634Z,53.20
2022-09-25T18:15:50.049Z,53.17
2022-09-25T18:18:22.889Z,53.68
2022-09-25T18:21:14.131Z,54.34
2022-09-25T18:23:46.452Z,53.94
2022-09-25T18:26:18.819Z,54.20
2022-09-25T18:28:51.276Z,54.11
2022-09-25T18:31:23.753Z,54.49
2022-09-25T18:33:56.054Z,54.07
2022-09-25T18:36:29.010Z,54.48
2022-09-25T18:39:01.394Z,53.93
2022-09-25T18:41:36.312Z,53.06
2022-09-25T18:44:08.600Z,52.69
2022-09-25T18:46:40.923Z,52.79
2022-09-25T18:49:13.436Z,52.53
2022-09-25T18:51:47.094Z,52.11
2022-09-25T18:54:20.047Z,52.60
2022-09-25T18:56:52.509Z,52.63
2022-09-25T18:59:25.176Z,52.87
2022-09-25T19:01:57.633Z,53.38
2022-09-25T19:04:30.005Z,52.81
2022-09-25T19:07:03.019Z,50.80
2022-09-25T19:09:35.304Z,50.93
2022-09-25T19:12:07.618Z,49.99
2022-09-25T19:14:40.660Z,49.68
2022-09-25T19:17:14.208Z,50.20
2022-09-25T19:19:47.024Z,50.11
2022-09-25T19:22:21.098Z,49.92
2022-09-25T19:24:54.604Z,50.05
2022-09-25T19:27:28.564Z,50.47
2022-09-25T19:30:00.842Z,50.05
2022-09-25T19:32:33.234Z,48.84
2022-09-25T19:35:06.046Z,49.43
2022-09-25T19:37:41.312Z,49.34
2022-09-25T19:40:31.937Z,50.08
2022-09-25T19:43:04.510Z,50.37
2022-09-25T19:45:36.812Z,50.16
2022-09-25T19:48:09.131Z,50.30
2022-09-25T19:50:41.839Z,49.67
2022-09-25T19:53:16.058Z,50.08
2022-09-25T19:55:50.701Z,49.94
2022-09-25T19:58:23.585Z,49.39
2022-09-25T20:00:57.516Z,49.31
2022-09-25T20:03:29.807Z,48.63
2022-09-25T20:06:02.364Z,48.19
2022-09-25T20:08:35.541Z,48.22
2022-09-25T20:11:16.431Z,48.06
2022-09-25T20:13:50.531Z,48.10
2022-09-25T20:16:24.841Z,47.52
2022-09-25T20:18:59.496Z,47.86
2022-09-25T20:21:33.666Z,48.14
2022-09-25T20:24:07.765Z,48.10
2022-09-25T20:26:40.328Z,47.99
2022-09-25T20:29:14.192Z,47.64
2022-09-25T20:31:46.940Z,47.58
2022-09-25T20:34:20.262Z,47.65
2022-09-25T20:36:52.571Z,47.51
2022-09-25T20:39:26.747Z,47.38
2022-09-25T20:41:59.137Z,47.53
2022-09-25T20:44:31.518Z,47.24
2022-09-25T20:47:03.932Z,47.24
2022-09-25T20:49:36.263Z,47.21
2022-09-25T20:52:09.343Z,47.17
2022-09-25T20:54:42.337Z,46.89
2022-09-25T20:57:14.634Z,46.48
2022-09-25T20:59:46.930Z,46.79
2022-09-25T21:02:19.339Z,46.80
2022-09-25T21:04:52.767Z,47.17
2022-09-25T21:07:25.746Z,47.04
2022-09-25T21:09:58.687Z,47.22
2022-09-25T21:12:30.947Z,47.39
2022-09-25T21:15:03.660Z,48.61
2022-09-25T21:17:36.051Z,49.23
2022-09-25T21:20:09.111Z,50.62
2022-09-25T21:22:41.557Z,49.86
2022-09-25T21:25:14.727Z,50.00
2022-09-25T21:27:47.021Z,50.68
2022-09-25T21:30:19.348Z,51.53
2022-09-25T21:32:53.015Z,52.48
2022-09-25T21:35:25.514Z,53.84
2022-09-25T21:37:57.815Z,54.22
2022-09-25T21:40:30.889Z,54.10
2022-09-25T21:43:03.243Z,53.89
2022-09-25T21:45:35.526Z,54.12
2022-09-25T21:48:08.302Z,54.54
2022-09-25T21:50:51.062Z,55.11
2022-09-25T21:53:24.352Z,55.33
2022-09-25T21:56:01.420Z,55.64
2022-09-25T21:58:34.373Z,56.08
2022-09-25T22:01:09.043Z,56.25
2022-09-25T22:03:43.408Z,56.64
2022-09-25T22:06:17.693Z,57.58
2022-09-25T22:08:53.456Z,57.89
2022-09-25T22:11:27.079Z,57.46
2022-09-25T22:13:59.965Z,57.98
2022-09-25T22:16:34.250Z,57.91
2022-09-25T22:19:14.371Z,58.02
2022-09-25T22:21:48.947Z,57.88
2022-09-25T22:24:21.917Z,57.87
2022-09-25T22:26:55.775Z,57.98
2022-09-25T22:29:28.194Z,57.84
2022-09-25T22:32:00.968Z,57.76
2022-09-25T22:34:33.230Z,56.92
2022-09-25T22:37:05.543Z,57.55
2022-09-25T22:39:37.844Z,57.78
2022-09-25T22:42:10.831Z,59.16
2022-09-25T22:44:43.141Z,59.63
2022-09-25T22:47:15.444Z,59.60
2022-09-25T22:49:47.767Z,59.57
2022-09-25T22:52:20.087Z,59.78
2022-09-25T22:54:52.404Z,59.65
2022-09-25T22:57:25.413Z,59.55
2022-09-25T22:59:57.747Z,59.22
2022-09-25T23:02:30.125Z,59.21
2022-09-25T23:05:06.303Z,59.75
2022-09-25T23:07:39.275Z,60.02
2022-09-25T23:10:11.622Z,60.49
2022-09-25T23:12:44.610Z,59.88
2022-09-25T23:15:17.085Z,59.65
2022-09-25T23:17:49.395Z,59.86
2022-09-25T23:20:21.740Z,59.59
2022-09-25T23:22:55.962Z,59.61
2022-09-25T23:25:28.233Z,59.87
2022-09-25T23:28:01.821Z,59.82
2022-09-25T23:30:34.205Z,59.59
2022-09-25T23:33:06.551Z,59.87
2022-09-25T23:35:38.842Z,59.73
2022-09-25T23:38:11.528Z,60.11
2022-09-25T23:40:43.870Z,60.46
2022-09-25T23:43:17.294Z,60.71
2022-09-25T23:45:49.908Z,60.83
2022-09-25T23:48:22.293Z,61.43
2022-09-25T23:50:54.567Z,61.24
2022-09-25T23:53:26.806Z,60.86
2022-09-25T23:56:03.783Z,61.37
2022-09-25T23:58:36.906Z,61.98
